Time;durP1;ratioP1;P1;durP2;ratioP2;P2;SDS_P1;SDS_P2;PMS_P1;PMS_P2;Temp;Humidity;BMP_temperature;BMP_pressure;BME280_temperature;BME280_humidity;BME280_pressure;Samples;Min_cycle;Max_cycle;Signal;HPM_P1;HPM_P2
2021/01/18 00:01:27;;;;;;;;;;;-2.00;92.50;;;;;;5017160;28;87636;-48
2021/01/18 00:03:52;;;;;;;;;;;-2.00;92.80;;;;;;5016225;28;88130;-50
2021/01/18 00:06:19;;;;;;;;;;;-2.00;92.50;;;;;;5020939;28;88756;-48
2021/01/18 00:08:45;;;;;;;;;;;-2.00;92.50;;;;;;5018256;28;87182;-49
2021/01/18 00:11:11;;;;;;;;;;;-2.00;92.50;;;;;;5019081;28;87160;-49
2021/01/18 00:13:36;;;;;;;;;;;-2.00;92.50;;;;;;5019122;28;87627;-50
2021/01/18 00:16:02;;;;;;;;;;;-2.00;92.50;;;;;;5019457;28;87175;-48
2021/01/18 00:18:28;;;;;;;;;;;-2.00;92.40;;;;;;5020475;28;87168;-48
2021/01/18 00:20:54;;;;;;;;;;;-2.00;92.40;;;;;;5020197;28;87615;-49
2021/01/18 00:23:20;;;;;;;;;;;-2.00;92.50;;;;;;5019954;28;87143;-51
2021/01/18 00:25:45;;;;;;;;;;;-2.00;92.50;;;;;;5017353;28;88080;-48
2021/01/18 00:28:10;;;;;;;;;;;-2.00;92.80;;;;;;5017353;28;88927;-49
2021/01/18 00:30:36;;;;;;;;;;;-2.00;92.40;;;;;;5015546;28;88013;-47
2021/01/18 00:33:02;;;;;;;;;;;-2.00;92.50;;;;;;5015103;28;89176;-48
2021/01/18 00:35:28;;;;;;;;;;;-2.00;92.50;;;;;;5015372;28;87934;-50
2021/01/18 00:37:54;;;;;;;;;;;-2.00;92.30;;;;;;5019005;28;89192;-49
2021/01/18 00:40:20;;;;;;;;;;;-2.00;92.50;;;;;;5016700;28;88186;-48
2021/01/18 00:42:46;;;;;;;;;;;-2.00;92.50;;;;;;5022519;28;87247;-48
2021/01/18 00:45:13;;;;;;;;;;;-2.00;92.50;;;;;;5021589;28;87678;-48
2021/01/18 00:47:39;;;;;;;;;;;-2.00;92.50;;;;;;5018481;28;90033;-49
2021/01/18 00:50:05;;;;;;;;;;;-2.10;92.50;;;;;;5025938;28;87204;-49
2021/01/18 00:52:31;;;;;;;;;;;-2.00;92.50;;;;;;5021608;28;89677;-49
2021/01/18 00:54:56;;;;;;;;;;;-2.10;92.40;;;;;;5019827;28;87868;-48
2021/01/18 00:57:22;;;;;;;;;;;-2.00;92.50;;;;;;5019292;28;87579;-50
2021/01/18 00:59:47;;;;;;;;;;;-2.10;92.50;;;;;;5020164;28;88505;-48
2021/01/18 01:02:13;;;;;;;;;;;-2.00;92.40;;;;;;5021076;28;87100;-48
2021/01/18 01:04:38;;;;;;;;;;;-2.00;92.50;;;;;;5020745;28;87161;-49
2021/01/18 01:07:04;;;;;;;;;;;-2.00;92.50;;;;;;5019448;28;87614;-48
2021/01/18 01:09:29;;;;;;;;;;;-2.10;92.40;;;;;;5019274;28;86466;-49
2021/01/18 01:11:55;;;;;;;;;;;-2.10;92.40;;;;;;5020379;28;87185;-48
2021/01/18 01:14:20;;;;;;;;;;;-2.10;92.40;;;;;;5019365;28;88707;-50
2021/01/18 01:16:46;;;;;;;;;;;-2.10;92.50;;;;;;5017648;28;89378;-49
2021/01/18 01:19:11;;;;;;;;;;;-2.10;92.40;;;;;;5019083;28;88205;-47
2021/01/18 01:21:37;;;;;;;;;;;-2.10;92.50;;;;;;5020433;28;87242;-48
2021/01/18 01:24:03;;;;;;;;;;;-2.10;92.50;;;;;;5021619;28;87162;-53
2021/01/18 01:26:28;;;;;;;;;;;-2.10;92.50;;;;;;5020853;28;89414;-49
2021/01/18 01:28:54;;;;;;;;;;;-2.10;92.50;;;;;;5021713;28;87153;-49
2021/01/18 01:31:19;;;;;;;;;;;-2.10;92.50;;;;;;5021157;28;87404;-50
2021/01/18 01:33:45;;;;;;;;;;;-2.10;92.50;;;;;;5023057;28;88822;-49
2021/01/18 01:36:11;;;;;;;;;;;-2.10;92.50;;;;;;5020381;28;87244;-49
2021/01/18 01:38:36;;;;;;;;;;;-2.10;92.50;;;;;;5020899;28;87487;-49
2021/01/18 01:41:02;;;;;;;;;;;-2.10;92.40;;;;;;5021951;28;88785;-49
2021/01/18 01:43:28;;;;;;;;;;;-2.10;92.50;;;;;;5022164;28;89661;-49
2021/01/18 01:45:53;;;;;;;;;;;-2.10;92.50;;;;;;5021727;28;89048;-49
2021/01/18 01:48:19;;;;;;;;;;;-2.10;92.40;;;;;;5021406;28;87154;-49
2021/01/18 01:50:45;;;;;;;;;;;-2.10;92.40;;;;;;5021846;28;87685;-51
2021/01/18 01:53:13;;;;;;;;;;;-2.10;92.40;;;;;;5019976;28;87620;-47
2021/01/18 01:55:39;;;;;;;;;;;-2.10;92.40;;;;;;5024603;28;87124;-50
2021/01/18 01:58:06;;;;;;;;;;;-2.10;92.40;;;;;;5021776;28;87436;-48
2021/01/18 02:00:38;;;;;;;;;;;-2.10;92.30;;;;;;5020960;28;87162;-48
2021/01/18 02:03:05;;;;;;;;;;;-2.10;92.40;;;;;;5017996;28;87178;-48
2021/01/18 02:05:30;;;;;;;;;;;-2.10;92.30;;;;;;5021068;28;89140;-49
2021/01/18 02:07:59;;;;;;;;;;;-2.10;92.30;;;;;;5021518;28;88809;-48
2021/01/18 02:10:25;;;;;;;;;;;-2.10;92.40;;;;;;5018719;28;88597;-48
2021/01/18 02:12:51;;;;;;;;;;;-2.10;92.30;;;;;;5019441;28;89805;-48
2021/01/18 02:15:25;;;;;;;;;;;-2.10;92.30;;;;;;5023496;28;87158;-49
2021/01/18 02:18:06;;;;;;;;;;;-2.10;92.40;;;;;;5020517;28;89561;-48
2021/01/18 02:20:50;;;;;;;;;;;-2.10;92.40;;;;;;5021803;28;87116;-50
2021/01/18 02:23:35;;;;;;;;;;;-2.10;92.30;;;;;;5018992;28;87049;-48
2021/01/18 02:26:18;;;;;;;;;;;-2.10;92.30;;;;;;5020695;28;87610;-50
2021/01/18 02:28:53;;;;;;;;;;;-2.10;92.40;;;;;;5018449;28;87152;-49
2021/01/18 02:31:18;;;;;;;;;;;-2.10;92.30;;;;;;5019719;28;88967;-48
2021/01/18 02:33:44;;;;;;;;;;;-2.10;92.30;;;;;;5020915;28;87773;-51
2021/01/18 02:36:09;;;;;;;;;;;-2.10;92.40;;;;;;5020130;28;88050;-51
2021/01/18 02:38:42;;;;;;;;;;;-2.10;92.40;;;;;;5019349;28;87152;-48
2021/01/18 02:41:29;;;;;;;;;;;-2.20;92.40;;;;;;5021553;28;87249;-50
2021/01/18 02:43:57;;;;;;;;;;;-2.10;92.50;;;;;;5021525;28;87933;-50
2021/01/18 02:46:24;;;;;;;;;;;-2.10;92.30;;;;;;5017445;28;87411;-48
2021/01/18 02:48:50;;;;;;;;;;;-2.10;92.30;;;;;;5017350;28;87574;-48
2021/01/18 02:51:18;;;;;;;;;;;-2.10;92.30;;;;;;5020340;28;87955;-48
2021/01/18 02:53:53;;;;;;;;;;;-2.10;92.40;;;;;;5019157;28;89749;-49
2021/01/18 02:56:19;;;;;;;;;;;-2.10;92.40;;;;;;5018581;28;88054;-49
2021/01/18 02:58:46;;;;;;;;;;;-2.10;92.30;;;;;;5018837;28;87980;-48
2021/01/18 03:01:16;;;;;;;;;;;-2.20;92.30;;;;;;5020040;28;87706;-49
2021/01/18 03:03:54;;;;;;;;;;;-2.20;92.20;;;;;;5008464;28;88550;-48
2021/01/18 03:06:30;;;;;;;;;;;-2.20;92.30;;;;;;5018358;28;88502;-48
2021/01/18 03:09:00;;;;;;;;;;;-2.20;92.30;;;;;;5016428;28;87245;-49
2021/01/18 03:11:27;;;;;;;;;;;-2.20;92.30;;;;;;5018772;28;87554;-49
2021/01/18 03:14:18;;;;;;;;;;;-2.20;92.30;;;;;;5018268;28;87527;-48
2021/01/18 03:16:45;;;;;;;;;;;-2.20;92.30;;;;;;5016238;28;87218;-47
2021/01/18 03:19:11;;;;;;;;;;;-2.10;92.30;;;;;;5017908;28;87264;-50
2021/01/18 03:21:44;;;;;;;;;;;-2.10;92.30;;;;;;5017062;28;88566;-49
2021/01/18 03:24:09;;;;;;;;;;;-2.20;92.20;;;;;;5020480;28;88257;-49
2021/01/18 03:26:35;;;;;;;;;;;-2.20;92.30;;;;;;5020897;28;88381;-50
2021/01/18 03:29:00;;;;;;;;;;;-2.10;92.30;;;;;;5020517;28;87221;-49
2021/01/18 03:31:26;;;;;;;;;;;-2.20;92.20;;;;;;5020512;28;87460;-49
2021/01/18 03:33:51;;;;;;;;;;;-2.20;92.30;;;;;;5018579;28;88073;-48
2021/01/18 03:36:17;;;;;;;;;;;-2.20;92.20;;;;;;5016175;28;87211;-48
2021/01/18 03:38:42;;;;;;;;;;;-2.20;92.30;;;;;;5017992;28;87476;-49
2021/01/18 03:41:10;;;;;;;;;;;-2.20;92.30;;;;;;5018490;28;88244;-49
2021/01/18 03:43:35;;;;;;;;;;;-2.20;92.30;;;;;;5016531;28;87221;-48
2021/01/18 03:46:01;;;;;;;;;;;-2.20;92.30;;;;;;5019416;28;88168;-48
2021/01/18 03:48:26;;;;;;;;;;;-2.20;92.30;;;;;;5018653;28;87132;-48
2021/01/18 03:50:52;;;;;;;;;;;-2.20;92.20;;;;;;5019762;28;87177;-49
2021/01/18 03:53:17;;;;;;;;;;;-2.20;92.30;;;;;;5019846;28;88389;-48
2021/01/18 03:55:43;;;;;;;;;;;-2.20;92.20;;;;;;5020994;28;88614;-49
2021/01/18 03:58:09;;;;;;;;;;;-2.20;92.30;;;;;;5018057;28;89114;-50
2021/01/18 04:00:36;;;;;;;;;;;-2.20;92.20;;;;;;5016399;28;88719;-49
2021/01/18 04:03:01;;;;;;;;;;;-2.20;92.30;;;;;;5019559;28;87548;-50
2021/01/18 04:05:27;;;;;;;;;;;-2.20;92.30;;;;;;5017663;28;87698;-48
2021/01/18 04:07:53;;;;;;;;;;;-2.20;92.20;;;;;;5018407;28;90020;-49
2021/01/18 04:10:21;;;;;;;;;;;-2.20;92.20;;;;;;5015754;28;88185;-48
2021/01/18 04:12:47;;;;;;;;;;;-2.20;92.30;;;;;;5019928;28;88192;-50
2021/01/18 04:15:14;;;;;;;;;;;-2.20;92.30;;;;;;5020554;28;87221;-48
2021/01/18 04:17:43;;;;;;;;;;;-2.30;92.20;;;;;;5023260;28;87177;-54
2021/01/18 04:20:09;;;;;;;;;;;-2.20;92.30;;;;;;5019140;28;88059;-50
2021/01/18 04:22:35;;;;;;;;;;;-2.20;92.30;;;;;;5020036;28;87273;-48
2021/01/18 04:25:01;;;;;;;;;;;-2.20;92.20;;;;;;5020626;28;87466;-48
2021/01/18 04:27:26;;;;;;;;;;;-2.30;92.20;;;;;;5025263;28;86769;-49
2021/01/18 04:29:52;;;;;;;;;;;-2.20;92.20;;;;;;5023511;28;87141;-50
2021/01/18 04:32:17;;;;;;;;;;;-2.30;92.20;;;;;;5021017;28;88436;-47
2021/01/18 04:34:43;;;;;;;;;;;-2.30;92.20;;;;;;5018014;28;90264;-48
2021/01/18 04:37:08;;;;;;;;;;;-2.20;92.30;;;;;;5018833;28;90431;-49
2021/01/18 04:39:34;;;;;;;;;;;-2.30;92.30;;;;;;5019626;28;87396;-48
2021/01/18 04:42:00;;;;;;;;;;;-2.30;92.30;;;;;;5021161;28;87129;-48
2021/01/18 04:44:26;;;;;;;;;;;-2.30;92.50;;;;;;5021715;28;87405;-48
2021/01/18 04:46:53;;;;;;;;;;;-2.30;92.30;;;;;;5021433;28;88333;-49
2021/01/18 04:49:19;;;;;;;;;;;-2.30;92.30;;;;;;5024612;28;87118;-48
2021/01/18 04:51:54;;;;;;;;;;;-2.30;92.20;;;;;;5022659;28;87239;-49
2021/01/18 04:54:20;;;;;;;;;;;-2.30;92.20;;;;;;5021939;28;88034;-49
2021/01/18 04:57:05;;;;;;;;;;;-2.30;92.20;;;;;;5021665;28;89592;-48
2021/01/18 04:59:37;;;;;;;;;;;-2.30;92.20;;;;;;5019355;28;89625;-48
2021/01/18 05:02:12;;;;;;;;;;;-2.30;92.20;;;;;;5019328;28;87169;-49
2021/01/18 05:04:39;;;;;;;;;;;-2.30;92.20;;;;;;5021671;28;87308;-50
2021/01/18 05:07:22;;;;;;;;;;;-2.30;92.30;;;;;;5020443;28;89565;-48
2021/01/18 05:09:54;;;;;;;;;;;-2.30;92.20;;;;;;5018560;28;88209;-48
2021/01/18 05:12:19;;;;;;;;;;;-2.30;92.30;;;;;;5021616;28;88551;-49
2021/01/18 05:14:45;;;;;;;;;;;-2.30;92.30;;;;;;5018991;28;87163;-48
2021/01/18 05:17:18;;;;;;;;;;;-2.30;92.20;;;;;;5020911;28;86957;-48
2021/01/18 05:19:44;;;;;;;;;;;-2.30;92.20;;;;;;5018051;28;87559;-48
2021/01/18 05:22:11;;;;;;;;;;;-2.30;92.20;;;;;;5018896;28;87161;-48
2021/01/18 05:24:36;;;;;;;;;;;-2.30;92.20;;;;;;5017266;28;88509;-47
2021/01/18 05:27:03;;;;;;;;;;;-2.30;92.10;;;;;;5018137;28;87297;-48
2021/01/18 05:29:30;;;;;;;;;;;-2.30;92.50;;;;;;5018132;28;87200;-48
2021/01/18 05:31:55;;;;;;;;;;;-2.30;92.10;;;;;;5022828;28;87931;-50
2021/01/18 05:34:24;;;;;;;;;;;-2.30;92.20;;;;;;5024384;28;88249;-49
2021/01/18 05:36:50;;;;;;;;;;;-2.30;92.30;;;;;;5018963;28;88178;-48
2021/01/18 05:39:16;;;;;;;;;;;-2.30;92.20;;;;;;5018196;28;89194;-48
2021/01/18 05:41:42;;;;;;;;;;;-2.40;92.20;;;;;;5020421;28;86400;-48
2021/01/18 05:44:08;;;;;;;;;;;-2.30;92.20;;;;;;5019555;28;87155;-48
2021/01/18 05:46:41;;;;;;;;;;;-2.30;92.20;;;;;;5019969;28;87996;-50
2021/01/18 05:49:09;;;;;;;;;;;-2.40;92.30;;;;;;5017877;28;88094;-49
2021/01/18 05:51:35;;;;;;;;;;;-2.40;92.30;;;;;;5020263;28;89913;-48
2021/01/18 05:54:02;;;;;;;;;;;-2.40;92.20;;;;;;5018484;28;88153;-48
2021/01/18 05:56:37;;;;;;;;;;;-2.40;92.30;;;;;;5022825;28;87310;-49
2021/01/18 05:59:10;;;;;;;;;;;-2.40;92.30;;;;;;5017454;28;89046;-48
2021/01/18 06:01:41;;;;;;;;;;;-2.40;92.30;;;;;;5020701;28;87139;-48
2021/01/18 06:04:08;;;;;;;;;;;-2.40;92.20;;;;;;5019409;28;88956;-49
2021/01/18 06:06:34;;;;;;;;;;;-2.40;92.20;;;;;;5017999;28;87150;-51
2021/01/18 06:09:00;;;;;;;;;;;-2.40;92.30;;;;;;5021742;28;88424;-49
2021/01/18 06:11:25;;;;;;;;;;;-2.40;92.20;;;;;;5022107;28;87562;-50
2021/01/18 06:13:57;;;;;;;;;;;-2.40;92.30;;;;;;5019084;28;89546;-50
2021/01/18 06:16:23;;;;;;;;;;;-2.40;92.30;;;;;;5022197;28;89031;-48
2021/01/18 06:18:59;;;;;;;;;;;-2.40;92.20;;;;;;5021590;28;88773;-49
2021/01/18 06:21:33;;;;;;;;;;;-2.40;92.10;;;;;;5018199;28;88527;-48
2021/01/18 06:24:12;;;;;;;;;;;-2.40;92.20;;;;;;5019205;28;87150;-48
2021/01/18 06:26:39;;;;;;;;;;;-2.40;92.30;;;;;;5020977;28;87748;-48
2021/01/18 06:29:05;;;;;;;;;;;-2.40;92.20;;;;;;5017961;28;87247;-47
2021/01/18 06:31:42;;;;;;;;;;;-2.40;92.20;;;;;;5018089;28;86935;-49
2021/01/18 06:34:08;;;;;;;;;;;-2.50;92.30;;;;;;5019714;28;87374;-48
2021/01/18 06:36:34;;;;;;;;;;;-2.40;92.20;;;;;;5017091;28;87185;-49
2021/01/18 06:38:59;;;;;;;;;;;-2.40;92.20;;;;;;5019267;28;89897;-50
2021/01/18 06:41:35;;;;;;;;;;;-2.40;92.20;;;;;;5018099;28;87171;-49
2021/01/18 06:44:01;;;;;;;;;;;-2.40;92.20;;;;;;5018086;28;87758;-48
2021/01/18 06:46:37;;;;;;;;;;;-2.40;92.20;;;;;;5017045;28;87649;-48
2021/01/18 06:49:03;;;;;;;;;;;-2.40;92.30;;;;;;5016692;28;87919;-48
2021/01/18 06:51:29;;;;;;;;;;;-2.40;92.20;;;;;;5019763;28;88717;-50
2021/01/18 06:53:56;;;;;;;;;;;-2.40;92.20;;;;;;5019317;28;88200;-48
2021/01/18 06:56:21;;;;;;;;;;;-2.40;92.20;;;;;;5020345;28;87514;-48
2021/01/18 06:59:00;;;;;;;;;;;-2.40;92.30;;;;;;5016730;28;87193;-49
2021/01/18 07:01:28;;;;;;;;;;;-2.40;92.40;;;;;;5023123;28;88903;-50
2021/01/18 07:04:02;;;;;;;;;;;-2.40;92.20;;;;;;5016738;28;89116;-50
2021/01/18 07:06:33;;;;;;;;;;;-2.40;92.20;;;;;;5019229;28;88148;-49
2021/01/18 07:09:04;;;;;;;;;;;-2.40;92.30;;;;;;5017785;28;87181;-50
2021/01/18 07:11:29;;;;;;;;;;;-2.40;92.20;;;;;;5018751;28;87549;-48
2021/01/18 07:13:55;;;;;;;;;;;-2.40;92.20;;;;;;5018512;28;87934;-48
2021/01/18 07:16:22;;;;;;;;;;;-2.40;92.20;;;;;;5018127;28;87132;-49
2021/01/18 07:18:51;;;;;;;;;;;-2.40;92.20;;;;;;5018085;28;88418;-50
2021/01/18 07:21:18;;;;;;;;;;;-2.40;92.20;;;;;;5016774;28;88956;-49
2021/01/18 07:23:48;;;;;;;;;;;-2.40;92.10;;;;;;5019493;28;87119;-54
2021/01/18 07:26:20;;;;;;;;;;;-2.40;92.20;;;;;;5016949;28;87921;-51
2021/01/18 07:28:53;;;;;;;;;;;-2.40;92.20;;;;;;5015824;28;88114;-51
2021/01/18 07:31:19;;;;;;;;;;;-2.40;92.20;;;;;;5020871;28;89858;-48
2021/01/18 07:33:45;;;;;;;;;;;-2.50;92.20;;;;;;5018362;28;87961;-50
2021/01/18 07:36:11;;;;;;;;;;;-2.40;92.20;;;;;;5017768;28;88134;-48
2021/01/18 07:38:37;;;;;;;;;;;-2.40;92.20;;;;;;5015303;28;87546;-48
2021/01/18 07:41:12;;;;;;;;;;;-2.50;92.10;;;;;;5016563;28;87995;-48
2021/01/18 07:43:42;;;;;;;;;;;-2.40;92.10;;;;;;5018031;28;87159;-48
2021/01/18 07:46:28;;;;;;;;;;;-2.50;92.20;;;;;;5023076;28;86948;-48
2021/01/18 07:48:56;;;;;;;;;;;-2.40;92.20;;;;;;5018525;28;87167;-49
2021/01/18 07:51:23;;;;;;;;;;;-2.40;92.20;;;;;;5019957;28;88053;-49
2021/01/18 07:53:49;;;;;;;;;;;-2.50;92.20;;;;;;5018993;28;89337;-50
2021/01/18 07:56:24;;;;;;;;;;;-2.40;92.20;;;;;;5020067;28;87125;-49
2021/01/18 07:58:58;;;;;;;;;;;-2.50;92.10;;;;;;5016146;28;88847;-50
2021/01/18 08:01:28;;;;;;;;;;;-2.40;92.20;;;;;;5018197;28;88299;-49
2021/01/18 08:03:53;;;;;;;;;;;-2.40;92.20;;;;;;5018140;28;87148;-48
2021/01/18 08:06:19;;;;;;;;;;;-2.50;92.10;;;;;;5015871;28;89479;-49
2021/01/18 08:08:45;;;;;;;;;;;-2.40;92.10;;;;;;5018891;28;87379;-48
2021/01/18 08:11:18;;;;;;;;;;;-2.40;92.10;;;;;;5017922;28;87043;-49
2021/01/18 08:13:43;;;;;;;;;;;-2.40;92.10;;;;;;5015283;28;89576;-51
2021/01/18 08:16:12;;;;;;;;;;;-2.40;92.10;;;;;;5016602;28;87237;-48
2021/01/18 08:18:48;;;;;;;;;;;-2.40;92.00;;;;;;5018516;28;89464;-48
2021/01/18 08:21:32;;;;;;;;;;;-2.50;92.10;;;;;;5017075;28;87984;-50
2021/01/18 08:23:57;;;;;;;;;;;-2.50;92.10;;;;;;5018530;28;87157;-48
2021/01/18 08:26:23;;;;;;;;;;;-2.40;92.10;;;;;;5019715;28;87151;-52
2021/01/18 08:28:48;;;;;;;;;;;-2.40;92.10;;;;;;5017833;28;88402;-48
2021/01/18 08:31:14;;;;;;;;;;;-2.50;92.10;;;;;;5018445;28;87142;-48
2021/01/18 08:33:40;;;;;;;;;;;-2.40;92.10;;;;;;5015708;28;89655;-48
2021/01/18 08:36:05;;;;;;;;;;;-2.40;92.00;;;;;;5017570;28;86385;-47
2021/01/18 08:38:31;;;;;;;;;;;-2.40;92.10;;;;;;5018312;28;87276;-48
2021/01/18 08:41:01;;;;;;;;;;;-2.40;92.10;;;;;;5018935;28;88635;-48
2021/01/18 08:43:43;;;;;;;;;;;-2.40;92.10;;;;;;5016936;28;89077;-49
2021/01/18 08:46:29;;;;;;;;;;;-2.50;92.10;;;;;;5020009;28;88301;-49
2021/01/18 08:49:13;;;;;;;;;;;-2.40;92.10;;;;;;5014324;28;88252;-50
2021/01/18 08:51:45;;;;;;;;;;;-2.40;92.10;;;;;;5015035;28;87160;-51
2021/01/18 08:54:11;;;;;;;;;;;-2.40;92.10;;;;;;5017086;28;88369;-49
2021/01/18 08:56:39;;;;;;;;;;;-2.50;92.10;;;;;;5018341;28;87141;-48
2021/01/18 08:59:14;;;;;;;;;;;-2.40;92.20;;;;;;5016369;28;88535;-49
2021/01/18 09:01:39;;;;;;;;;;;-2.40;92.10;;;;;;5016702;28;89422;-48
2021/01/18 09:04:05;;;;;;;;;;;-2.40;92.10;;;;;;5020126;28;87246;-50
2021/01/18 09:06:31;;;;;;;;;;;-2.40;92.10;;;;;;5021055;28;88574;-48
2021/01/18 09:09:07;;;;;;;;;;;-2.40;92.10;;;;;;5020628;28;88550;-48
2021/01/18 09:11:33;;;;;;;;;;;-2.40;92.10;;;;;;5021314;28;87121;-50
2021/01/18 09:13:58;;;;;;;;;;;-2.40;92.10;;;;;;5024862;28;88879;-49
2021/01/18 09:16:24;;;;;;;;;;;-2.40;91.90;;;;;;5022776;28;87817;-49
2021/01/18 09:18:49;;;;;;;;;;;-2.30;92.00;;;;;;5019419;28;87472;-49
2021/01/18 09:21:16;;;;;;;;;;;-2.40;92.00;;;;;;5018109;28;89814;-48
2021/01/18 09:23:42;;;;;;;;;;;-2.40;92.10;;;;;;5018759;28;87157;-51
2021/01/18 09:26:11;;;;;;;;;;;-2.40;92.00;;;;;;5020025;28;87073;-49
2021/01/18 09:28:37;;;;;;;;;;;-2.40;92.10;;;;;;5021799;28;89174;-48
2021/01/18 09:31:06;;;;;;;;;;;-2.40;92.00;;;;;;5021895;28;87144;-49
2021/01/18 09:33:32;;;;;;;;;;;-2.40;92.10;;;;;;5020442;28;89396;-53
2021/01/18 09:35:57;;;;;;;;;;;-2.40;92.10;;;;;;5025066;28;88029;-48
2021/01/18 09:38:23;;;;;;;;;;;-2.40;92.10;;;;;;5022094;28;88105;-49
2021/01/18 09:40:48;;;;;;;;;;;-2.40;92.10;;;;;;5021456;28;88285;-48
2021/01/18 09:43:19;;;;;;;;;;;-2.40;92.10;;;;;;5018757;28;88686;-49
2021/01/18 09:45:45;;;;;;;;;;;-2.40;92.10;;;;;;5018349;28;88516;-48
2021/01/18 09:48:11;;;;;;;;;;;-2.40;92.10;;;;;;5019188;28;88128;-48
2021/01/18 09:50:37;;;;;;;;;;;-2.40;92.10;;;;;;5019774;28;86391;-48
2021/01/18 09:53:06;;;;;;;;;;;-2.40;92.10;;;;;;5020033;28;87166;-48
2021/01/18 09:55:33;;;;;;;;;;;-2.40;92.10;;;;;;5020674;28;87756;-48
2021/01/18 09:58:17;;;;;;;;;;;-2.40;92.10;;;;;;5023152;28;89278;-48
2021/01/18 10:00:45;;;;;;;;;;;-2.40;92.10;;;;;;5018443;28;87531;-49
2021/01/18 10:03:11;;;;;;;;;;;-2.40;92.10;;;;;;5017596;28;87202;-48
2021/01/18 10:05:40;;;;;;;;;;;-2.40;92.10;;;;;;5018327;28;87111;-49
2021/01/18 10:08:13;;;;;;;;;;;-2.40;92.10;;;;;;5020788;28;88444;-49
2021/01/18 10:10:58;;;;;;;;;;;-2.40;92.00;;;;;;5018784;28;87173;-48
2021/01/18 10:13:24;;;;;;;;;;;-2.40;92.00;;;;;;5020967;28;88426;-51
2021/01/18 10:15:50;;;;;;;;;;;-2.40;92.00;;;;;;5021862;28;87863;-49
2021/01/18 10:18:31;;;;;;;;;;;-2.40;92.10;;;;;;5020649;28;87540;-50
2021/01/18 10:20:56;;;;;;;;;;;-2.40;92.10;;;;;;5019988;28;88818;-48
2021/01/18 10:23:22;;;;;;;;;;;-2.40;92.10;;;;;;5017175;28;88104;-48
2021/01/18 10:25:48;;;;;;;;;;;-2.40;92.10;;;;;;5018440;28;89465;-49
2021/01/18 10:28:17;;;;;;;;;;;-2.40;92.20;;;;;;5019640;28;88349;-48
2021/01/18 10:30:43;;;;;;;;;;;-2.40;92.10;;;;;;5019534;28;88370;-48
2021/01/18 10:33:14;;;;;;;;;;;-2.40;92.20;;;;;;5017520;28;88543;-48
2021/01/18 10:35:40;;;;;;;;;;;-2.40;92.10;;;;;;5016768;28;88337;-48
2021/01/18 10:38:09;;;;;;;;;;;-2.30;92.00;;;;;;5017934;28;87118;-48
2021/01/18 10:40:35;;;;;;;;;;;-2.40;92.00;;;;;;5021251;28;87944;-48
2021/01/18 10:43:02;;;;;;;;;;;-2.40;92.10;;;;;;5017595;28;87115;-48
2021/01/18 10:45:28;;;;;;;;;;;-2.40;92.10;;;;;;5019560;28;89445;-48
2021/01/18 10:48:00;;;;;;;;;;;-2.40;92.10;;;;;;5019039;28;89178;-51
2021/01/18 10:50:30;;;;;;;;;;;-2.40;92.10;;;;;;5021020;28;87215;-51
2021/01/18 10:53:01;;;;;;;;;;;-2.30;92.00;;;;;;5017523;28;87571;-49
2021/01/18 10:55:27;;;;;;;;;;;-2.30;92.00;;;;;;5017103;28;88973;-48
2021/01/18 10:57:53;;;;;;;;;;;-2.30;92.00;;;;;;5018663;28;87144;-49
2021/01/18 11:00:20;;;;;;;;;;;-2.30;92.00;;;;;;5018899;28;87326;-48
2021/01/18 11:03:15;;;;;;;;;;;-2.30;92.00;;;;;;5020207;28;89710;-48
2021/01/18 11:05:41;;;;;;;;;;;-2.30;92.00;;;;;;5011843;28;87996;-50
2021/01/18 11:08:10;;;;;;;;;;;-2.30;92.00;;;;;;5020527;28;89312;-49
2021/01/18 11:10:39;;;;;;;;;;;-2.30;91.90;;;;;;5017997;28;87166;-49
2021/01/18 11:13:06;;;;;;;;;;;-2.30;91.80;;;;;;5020823;28;88102;-48
2021/01/18 11:15:33;;;;;;;;;;;-2.30;92.00;;;;;;5019434;28;89154;-49
2021/01/18 11:17:59;;;;;;;;;;;-2.30;91.70;;;;;;5018146;28;87182;-50
2021/01/18 11:20:25;;;;;;;;;;;-2.20;91.80;;;;;;5019426;28;87488;-48
2021/01/18 11:22:51;;;;;;;;;;;-2.30;91.80;;;;;;5018693;28;88089;-50
2021/01/18 11:25:16;;;;;;;;;;;-2.30;91.90;;;;;;5022112;28;87204;-49
2021/01/18 11:27:42;;;;;;;;;;;-2.20;91.80;;;;;;5019560;28;87986;-48
2021/01/18 11:30:07;;;;;;;;;;;-2.30;91.90;;;;;;5016794;28;87256;-48
2021/01/18 11:32:33;;;;;;;;;;;-2.30;92.00;;;;;;5016891;28;87430;-48
2021/01/18 11:34:58;;;;;;;;;;;-2.30;92.00;;;;;;5017737;28;89335;-50
2021/01/18 11:37:24;;;;;;;;;;;-2.30;92.00;;;;;;5018861;28;88110;-49
2021/01/18 11:39:49;;;;;;;;;;;-2.30;92.00;;;;;;5020836;28;88419;-51
2021/01/18 11:42:15;;;;;;;;;;;-2.30;92.00;;;;;;5017477;28;87712;-49
2021/01/18 11:44:40;;;;;;;;;;;-2.30;92.00;;;;;;5017642;28;88805;-50
2021/01/18 11:47:06;;;;;;;;;;;-2.30;92.00;;;;;;5022816;28;88712;-54
2021/01/18 11:49:31;;;;;;;;;;;-2.30;92.00;;;;;;5020694;28;87154;-51
2021/01/18 11:51:59;;;;;;;;;;;-2.30;92.10;;;;;;5018151;28;87866;-49
2021/01/18 11:54:25;;;;;;;;;;;-2.30;92.10;;;;;;5019464;28;86893;-49
2021/01/18 11:56:51;;;;;;;;;;;-2.30;92.10;;;;;;5020374;28;87167;-51
2021/01/18 11:59:16;;;;;;;;;;;-2.30;92.10;;;;;;5018335;28;87910;-50
2021/01/18 12:01:45;;;;;;;;;;;-2.20;92.10;;;;;;5014873;28;88081;-48
2021/01/18 12:04:11;;;;;;;;;;;-2.30;92.10;;;;;;5019840;28;87242;-49
2021/01/18 12:06:37;;;;;;;;;;;-2.30;92.10;;;;;;5020570;28;87147;-49
2021/01/18 12:09:03;;;;;;;;;;;-2.30;92.10;;;;;;5022470;28;88395;-48
2021/01/18 12:11:29;;;;;;;;;;;-2.20;92.10;;;;;;5019271;28;89506;-50
2021/01/18 12:13:55;;;;;;;;;;;-2.20;92.10;;;;;;5018542;28;87590;-48
2021/01/18 12:16:24;;;;;;;;;;;-2.20;92.20;;;;;;5018036;28;87154;-48
2021/01/18 12:18:50;;;;;;;;;;;-2.20;92.20;;;;;;5020550;28;88762;-50
2021/01/18 12:21:15;;;;;;;;;;;-2.20;92.10;;;;;;5012989;28;88781;-49
2021/01/18 12:23:40;;;;;;;;;;;-2.20;92.00;;;;;;4996000;28;87149;-49
2021/01/18 12:26:07;;;;;;;;;;;-2.20;92.30;;;;;;4995727;28;88055;-49
2021/01/18 12:28:33;;;;;;;;;;;-2.20;92.00;;;;;;4995195;28;89335;-49
2021/01/18 12:30:59;;;;;;;;;;;-2.20;92.10;;;;;;5001096;28;87134;-49
2021/01/18 12:33:24;;;;;;;;;;;-2.20;92.10;;;;;;5016679;28;89899;-48
2021/01/18 12:35:50;;;;;;;;;;;-2.20;92.10;;;;;;5017177;28;87227;-49
2021/01/18 12:38:16;;;;;;;;;;;-2.20;92.10;;;;;;5021571;28;87258;-48
2021/01/18 12:40:41;;;;;;;;;;;-2.20;92.10;;;;;;5022160;28;88353;-49
2021/01/18 12:43:07;;;;;;;;;;;-2.20;92.10;;;;;;5023768;28;87056;-48
2021/01/18 12:45:32;;;;;;;;;;;-2.20;92.20;;;;;;5020085;28;88039;-48
2021/01/18 12:47:58;;;;;;;;;;;-2.20;92.20;;;;;;5018911;28;89130;-48
2021/01/18 12:50:23;;;;;;;;;;;-2.10;92.20;;;;;;5022837;28;88073;-48
2021/01/18 12:52:50;;;;;;;;;;;-2.10;92.10;;;;;;5020636;28;87605;-48
2021/01/18 12:55:16;;;;;;;;;;;-2.10;92.10;;;;;;5020073;28;87095;-48
2021/01/18 12:57:41;;;;;;;;;;;-2.10;92.10;;;;;;5019283;28;87816;-47
2021/01/18 13:00:08;;;;;;;;;;;-2.10;92.10;;;;;;5018386;28;88270;-48
2021/01/18 13:02:33;;;;;;;;;;;-2.10;92.10;;;;;;5019159;28;87168;-48
2021/01/18 13:04:59;;;;;;;;;;;-2.10;92.10;;;;;;5019370;28;87243;-49
2021/01/18 13:07:24;;;;;;;;;;;-2.10;92.20;;;;;;5020761;28;87437;-48
2021/01/18 13:09:50;;;;;;;;;;;-2.10;92.20;;;;;;5021093;28;87226;-49
2021/01/18 13:12:15;;;;;;;;;;;-2.10;92.20;;;;;;5023772;28;87120;-49
2021/01/18 13:14:41;;;;;;;;;;;-2.10;92.20;;;;;;5020401;28;88179;-47
2021/01/18 13:17:06;;;;;;;;;;;-2.10;92.20;;;;;;5020425;28;88395;-49
2021/01/18 13:19:32;;;;;;;;;;;-2.10;92.20;;;;;;5019707;28;88271;-48
2021/01/18 13:21:58;;;;;;;;;;;-2.10;92.20;;;;;;5020780;28;87147;-49
2021/01/18 13:24:24;;;;;;;;;;;-2.10;92.20;;;;;;5020815;28;88590;-49
2021/01/18 13:26:50;;;;;;;;;;;-2.10;92.20;;;;;;5018802;28;87703;-48
2021/01/18 13:29:15;;;;;;;;;;;-2.10;92.20;;;;;;5018595;28;87226;-48
2021/01/18 13:31:42;;;;;;;;;;;-2.10;92.20;;;;;;5018298;28;88748;-49
2021/01/18 13:34:08;;;;;;;;;;;-2.10;92.20;;;;;;5024506;28;88102;-50
2021/01/18 13:36:34;;;;;;;;;;;-2.10;92.20;;;;;;5020189;28;87349;-51
2021/01/18 13:39:00;;;;;;;;;;;-2.10;92.20;;;;;;5016848;28;88858;-49
2021/01/18 13:41:25;;;;;;;;;;;-2.10;92.30;;;;;;5018871;28;87138;-49
2021/01/18 13:43:51;;;;;;;;;;;-2.10;92.30;;;;;;5020227;28;87808;-49
2021/01/18 13:46:21;;;;;;;;;;;-2.10;92.20;;;;;;5020205;28;88190;-49
2021/01/18 13:48:47;;;;;;;;;;;-2.10;92.20;;;;;;5020369;28;88350;-48
2021/01/18 13:51:16;;;;;;;;;;;-2.10;92.30;;;;;;5021446;28;87220;-53
2021/01/18 13:53:42;;;;;;;;;;;-2.10;92.30;;;;;;5018464;28;88091;-48
2021/01/18 13:56:08;;;;;;;;;;;-2.00;92.20;;;;;;5021931;28;86373;-48
2021/01/18 13:58:34;;;;;;;;;;;-2.00;92.20;;;;;;5016948;28;87758;-48
2021/01/18 14:01:00;;;;;;;;;;;-2.00;92.20;;;;;;5021841;28;87182;-50
2021/01/18 14:03:26;;;;;;;;;;;-2.10;92.20;;;;;;5019795;28;88087;-48
2021/01/18 14:05:51;;;;;;;;;;;-2.00;92.20;;;;;;5019413;28;89327;-48
2021/01/18 14:08:19;;;;;;;;;;;-2.00;92.20;;;;;;5020797;28;87092;-49
2021/01/18 14:10:48;;;;;;;;;;;-2.10;92.20;;;;;;5019192;28;87155;-48
2021/01/18 14:13:13;;;;;;;;;;;-2.00;92.20;;;;;;5021693;28;88222;-50
2021/01/18 14:15:39;;;;;;;;;;;-2.00;92.20;;;;;;5018924;28;87680;-48
2021/01/18 14:18:04;;;;;;;;;;;-2.00;92.20;;;;;;5020585;28;87725;-47
2021/01/18 14:20:30;;;;;;;;;;;-2.00;92.10;;;;;;5019044;28;86567;-48